Time;durP1;ratioP1;P1;durP2;ratioP2;P2;SDS_P1;SDS_P2;PMS_P1;PMS_P2;Temp;Humidity;BMP_temperature;BMP_pressure;BME280_temperature;BME280_humidity;BME280_pressure;Samples;Min_cycle;Max_cycle;Signal;HPM_P1;HPM_P2
2022/05/29 00:02:08;;;;;;;16.30;6.38;;;;;;;6.16;87.68;101721.50;4936483;29;20038;-45
2022/05/29 00:04:34;;;;;;;18.50;6.18;;;;;;;6.14;89.03;101729.09;4937384;29;20042;-44
2022/05/29 00:07:00;;;;;;;17.35;5.95;;;;;;;6.02;87.65;101736.03;4937066;29;20111;-44
2022/05/29 00:09:38;;;;;;;22.83;6.75;;;;;;;6.05;89.96;101723.44;4936628;29;20027;-44
2022/05/29 00:12:05;;;;;;;17.13;6.43;;;;;;;5.98;88.72;101728.91;4937298;29;20035;-46
2022/05/29 00:14:32;;;;;;;16.20;7.00;;;;;;;5.98;89.75;101721.22;4936616;29;20447;-44
2022/05/29 00:16:57;;;;;;;20.35;6.45;;;;;;;6.00;90.43;101719.69;4937054;29;20035;-44
2022/05/29 00:19:24;;;;;;;21.95;8.52;;;;;;;6.06;91.33;101720.09;4935844;29;20066;-45
2022/05/29 00:21:50;;;;;;;16.40;7.07;;;;;;;6.07;91.28;101711.63;4936361;29;20067;-44
2022/05/29 00:24:15;;;;;;;29.30;8.05;;;;;;;6.16;92.20;101711.28;4936628;29;20472;-46
2022/05/29 00:26:41;;;;;;;24.90;7.88;;;;;;;6.18;92.09;101710.56;4937149;29;20028;-47
2022/05/29 00:29:07;;;;;;;21.65;7.68;;;;;;;6.22;91.91;101706.53;4936035;29;20047;-45
2022/05/29 00:31:33;;;;;;;22.33;7.25;;;;;;;6.29;92.39;101707.78;4937015;29;20465;-45
2022/05/29 00:33:58;;;;;;;19.63;7.50;;;;;;;6.33;92.25;101704.66;4936709;29;20086;-44
2022/05/29 00:36:24;;;;;;;20.05;7.50;;;;;;;6.40;92.58;101699.09;4935913;29;20487;-45
2022/05/29 00:38:50;;;;;;;21.85;7.55;;;;;;;6.43;92.22;101694.19;4936911;29;20035;-44
2022/05/29 00:41:18;;;;;;;19.63;8.05;;;;;;;6.54;92.20;101700.78;4936631;29;20049;-45
2022/05/29 00:44:06;;;;;;;19.70;7.40;;;;;;;6.60;91.60;101695.19;4935856;29;20458;-44
2022/05/29 00:46:34;;;;;;;20.17;7.25;;;;;;;6.67;91.92;101696.41;4936557;29;20024;-46
2022/05/29 00:48:59;;;;;;;21.55;7.28;;;;;;;6.74;91.56;101688.31;4936613;29;20028;-47
2022/05/29 00:51:25;;;;;;;24.13;7.82;;;;;;;6.80;91.19;101688.66;4935880;29;20039;-47
2022/05/29 00:53:50;;;;;;;20.73;7.72;;;;;;;6.87;90.95;101689.91;4936534;29;20031;-46
2022/05/29 00:56:17;;;;;;;15.82;7.53;;;;;;;6.93;90.68;101680.00;4936296;29;20387;-45
2022/05/29 00:58:44;;;;;;;20.90;7.33;;;;;;;6.97;90.89;101681.06;4935685;29;20038;-45
2022/05/29 01:01:10;;;;;;;21.05;7.50;;;;;;;7.00;91.21;101676.13;4935953;29;20027;-45
2022/05/29 01:03:35;;;;;;;21.63;7.63;;;;;;;7.05;90.87;101675.59;4935997;29;20027;-45
2022/05/29 01:06:01;;;;;;;17.70;7.68;;;;;;;7.07;91.21;101683.34;4936261;29;20031;-47
2022/05/29 01:08:29;;;;;;;23.25;6.85;;;;;;;7.09;90.66;101676.66;4936371;29;20416;-46
2022/05/29 01:11:36;;;;;;;21.38;6.47;;;;;;;7.13;90.79;101682.81;4935567;29;20032;-46
2022/05/29 01:14:20;;;;;;;23.15;7.60;;;;;;;7.16;89.96;101670.19;4936224;29;20047;-45
2022/05/29 01:16:51;;;;;;;24.88;7.82;;;;;;;7.16;90.07;101671.06;4936295;29;20038;-46
2022/05/29 01:19:51;;;;;;;18.05;7.47;;;;;;;7.16;89.84;101670.19;4935010;29;20103;-44
2022/05/29 01:22:34;;;;;;;19.10;7.55;;;;;;;7.16;90.39;101660.81;4935659;29;20383;-44
2022/05/29 01:25:18;;;;;;;22.95;7.32;;;;;;;7.18;90.69;101656.66;4935296;29;20086;-44
2022/05/29 01:28:03;;;;;;;24.20;8.15;;;;;;;7.16;90.44;101658.25;4936091;29;20439;-45
2022/05/29 01:30:34;;;;;;;23.33;7.55;;;;;;;7.16;90.53;101653.09;4935616;29;20036;-45
2022/05/29 01:33:22;;;;;;;27.00;7.93;;;;;;;7.19;90.71;101655.88;4935233;29;20055;-46
2022/05/29 01:35:57;;;;;;;25.13;7.88;;;;;;;7.16;90.69;101653.09;4936026;29;20027;-45
2022/05/29 01:38:29;;;;;;;24.75;7.47;;;;;;;7.09;89.93;101651.00;4935591;29;20563;-44
2022/05/29 01:41:05;;;;;;;23.92;7.63;;;;;;;7.04;89.70;101655.00;4934977;29;20039;-45
2022/05/29 01:44:06;;;;;;;21.80;7.85;;;;;;;6.98;88.89;101652.94;4935842;29;20131;-44
2022/05/29 01:46:33;;;;;;;23.25;7.95;;;;;;;6.88;89.80;101649.00;4935104;29;20039;-44
2022/05/29 01:49:16;;;;;;;22.98;7.93;;;;;;;6.81;89.56;101654.53;4935480;29;20224;-44
2022/05/29 01:51:48;;;;;;;25.48;8.45;;;;;;;6.77;90.58;101638.94;4935971;29;20039;-45
2022/05/29 01:54:27;;;;;;;26.10;9.10;;;;;;;6.71;90.67;101642.91;4934831;29;20043;-44
2022/05/29 01:56:58;;;;;;;26.95;9.77;;;;;;;6.71;91.18;101636.88;4935714;29;20086;-45
2022/05/29 01:59:35;;;;;;;26.38;8.82;;;;;;;6.68;91.68;101635.00;4935449;29;20380;-45
2022/05/29 02:02:06;;;;;;;33.10;10.00;;;;;;;6.69;92.00;101644.47;4934826;29;20086;-44
2022/05/29 02:04:34;;;;;;;31.95;10.55;;;;;;;6.70;92.28;101629.97;4935562;29;20395;-44
2022/05/29 02:10:01;;;;;;;30.80;9.35;;;;;;;6.78;92.12;101628.75;4935860;29;20506;-44
2022/05/29 02:12:29;;;;;;;27.45;9.38;;;;;;;6.84;91.98;101629.13;4935548;29;20075;-45
2022/05/29 02:14:59;;;;;;;;;;;;;;;6.91;89.72;101633.78;4935304;29;20028;-45
2022/05/29 02:17:29;;;;;;;35.90;10.10;;;;;;;6.95;91.60;101636.53;4935533;29;19911;-45
2022/05/29 02:20:05;;;;;;;32.75;9.73;;;;;;;6.97;91.88;101625.56;4935388;29;20094;-44
2022/05/29 02:22:35;;;;;;;30.98;10.40;;;;;;;7.00;91.94;101630.00;4934518;29;20024;-44
2022/05/29 02:25:07;;;;;;;31.50;9.65;;;;;;;6.99;91.82;101623.09;4935518;29;20044;-45
2022/05/29 02:27:36;;;;;;;25.88;9.23;;;;;;;6.88;90.80;101625.94;4935522;29;20071;-45
2022/05/29 02:30:04;;;;;;;31.52;9.43;;;;;;;6.82;90.18;101619.59;4934447;29;20511;-46
2022/05/29 02:32:44;;;;;;;33.00;8.65;;;;;;;6.76;90.18;101614.97;4935348;29;20549;-45
2022/05/29 02:35:24;;;;;;;27.13;9.35;;;;;;;6.70;90.69;101610.38;4934567;29;20036;-44
2022/05/29 02:38:12;;;;;;;34.53;9.80;;;;;;;6.69;91.08;101610.31;4935304;29;20075;-45
2022/05/29 02:40:58;;;;;;;29.67;10.00;;;;;;;6.69;92.29;101603.50;4935388;29;20082;-44
2022/05/29 02:43:48;;;;;;;32.42;10.43;;;;;;;6.72;92.37;101607.91;4938036;29;20373;-44
2022/05/29 02:46:31;;;;;;;25.50;9.85;;;;;;;6.74;92.60;101608.91;4938806;29;20020;-45
2022/05/29 02:49:15;;;;;;;30.88;9.90;;;;;;;6.80;92.35;101606.66;4938493;29;20164;-45
2022/05/29 02:51:49;;;;;;;26.83;9.93;;;;;;;6.79;92.32;101604.00;4938769;29;20040;-44
2022/05/29 02:54:25;;;;;;;35.33;9.48;;;;;;;6.83;92.80;101599.16;4938565;29;20063;-45
2022/05/29 02:56:52;;;;;;;27.00;9.85;;;;;;;6.84;92.47;101600.03;4938093;29;20032;-45
2022/05/29 02:59:19;;;;;;;25.33;8.85;;;;;;;6.90;92.27;101598.69;4938354;29;20027;-44
2022/05/29 03:02:28;;;;;;;26.75;9.70;;;;;;;6.93;91.91;101597.97;4938543;29;20031;-45
2022/05/29 03:05:13;;;;;;;34.25;10.15;;;;;;;6.92;92.03;101592.00;4937982;29;20074;-46
2022/05/29 03:08:22;;;;;;;31.05;10.60;;;;;;;6.97;92.31;101593.91;4938548;29;20039;-45
2022/05/29 03:10:56;;;;;;;39.55;9.88;;;;;;;6.97;92.47;101589.69;4937913;29;20468;-44
2022/05/29 03:13:50;;;;;;;27.30;9.38;;;;;;;6.99;91.66;101589.78;4938327;29;20016;-44
2022/05/29 03:16:45;;;;;;;32.58;9.55;;;;;;;7.01;92.09;101591.63;4937940;29;20024;-45
2022/05/29 03:19:58;;;;;;;23.70;9.43;;;;;;;7.03;91.55;101595.13;4937256;29;20058;-44
2022/05/29 03:22:53;;;;;;;25.70;9.02;;;;;;;7.07;91.47;101596.19;4938075;29;20115;-46
2022/05/29 03:25:18;;;;;;;23.92;8.88;;;;;;;7.09;91.77;101594.63;4937159;29;20032;-45
2022/05/29 03:27:50;;;;;;;28.27;9.07;;;;;;;7.09;91.05;101592.94;4938143;29;20095;-44
2022/05/29 03:30:29;;;;;;;30.83;8.55;;;;;;;7.11;91.23;101584.44;4937776;29;20264;-44
2022/05/29 03:32:58;;;;;;;30.38;9.32;;;;;;;7.09;90.76;101592.94;4937138;29;20127;-45
2022/05/29 03:35:30;;;;;;;27.35;8.70;;;;;;;7.11;90.64;101593.00;4937787;29;20062;-45
2022/05/29 03:37:57;;;;;;;30.10;9.07;;;;;;;7.14;90.56;101582.94;4937987;29;20039;-44
2022/05/29 03:40:25;;;;;;;28.13;8.77;;;;;;;7.16;91.12;101578.75;4937008;29;20035;-45
2022/05/29 03:42:50;;;;;;;28.92;8.98;;;;;;;7.14;90.92;101582.94;4937592;29;20436;-44
2022/05/29 03:45:16;;;;;;;22.58;9.05;;;;;;;7.17;91.05;101575.41;4936746;29;20028;-44
2022/05/29 03:47:41;;;;;;;30.55;9.68;;;;;;;7.18;90.82;101573.72;4937731;29;20114;-45
2022/05/29 03:50:12;;;;;;;32.50;9.15;;;;;;;7.19;90.63;101576.38;4937333;29;20110;-45
2022/05/29 03:52:37;;;;;;;31.20;9.27;;;;;;;7.17;90.30;101577.97;4936901;29;20031;-44
2022/05/29 03:55:03;;;;;;;26.38;9.18;;;;;;;7.19;90.59;101570.34;4937512;29;20055;-47
2022/05/29 03:57:29;;;;;;;35.35;8.98;;;;;;;7.21;90.83;101569.66;4937478;29;20028;-44
2022/05/29 03:59:54;;;;;;;29.92;9.82;;;;;;;7.23;91.57;101572.28;4936807;29;20036;-44
2022/05/29 04:02:20;;;;;;;30.48;9.95;;;;;;;7.24;91.29;101574.97;4937140;29;20388;-44
2022/05/29 04:04:45;;;;;;;31.75;9.10;;;;;;;7.24;90.91;101567.28;4937254;29;20392;-48
2022/05/29 04:07:10;;;;;;;30.98;9.15;;;;;;;7.25;90.90;101566.44;4936606;29;20498;-45
2022/05/29 04:12:20;;;;;;;35.40;9.07;;;;;;;7.32;90.69;101569.34;4937069;29;20509;-44
2022/05/29 04:14:45;;;;;;;18.15;8.32;;;;;;;7.34;91.13;101566.06;4936427;29;20025;-47
2022/05/29 04:17:15;;;;;;;35.60;10.98;;;;;;;7.38;91.40;101565.44;4936799;29;20030;-46
2022/05/29 04:19:41;;;;;;;23.42;8.20;;;;;;;7.44;91.38;101561.44;4937029;29;20131;-45
2022/05/29 04:22:13;;;;;;;30.65;9.10;;;;;;;7.44;90.90;101567.47;4936214;29;20111;-45
2022/05/29 04:24:39;;;;;;;27.67;8.98;;;;;;;7.48;91.71;101554.00;4937164;29;20031;-46
2022/05/29 04:27:08;;;;;;;25.20;8.80;;;;;;;7.51;91.24;101559.28;4936677;29;20102;-45
2022/05/29 04:29:33;;;;;;;25.80;7.95;;;;;;;7.53;90.65;101567.09;4936188;29;20061;-45
2022/05/29 04:34:42;;;;;;;41.35;9.60;;;;;;;7.50;92.03;101572.94;4936530;29;20094;-44
2022/05/29 04:37:07;;;;;;;29.05;8.57;;;;;;;7.46;92.67;101582.94;4936502;29;20587;-44
2022/05/29 04:39:35;;;;;;;31.95;9.73;;;;;;;7.43;93.23;101590.47;4936839;29;20028;-44
2022/05/29 04:42:00;;;;;;;30.42;9.15;;;;;;;7.39;93.45;101586.84;4935691;29;20043;-45
2022/05/29 04:44:26;;;;;;;28.95;9.45;;;;;;;7.38;94.47;101582.50;4936759;29;20027;-45
2022/05/29 04:46:51;;;;;;;29.35;11.10;;;;;;;7.38;95.28;101577.38;4936778;29;20122;-45
2022/05/29 04:49:16;;;;;;;31.38;10.23;;;;;;;7.38;94.81;101577.38;4935550;29;20063;-45
2022/05/29 04:51:41;;;;;;;33.45;10.25;;;;;;;7.38;95.07;101578.25;4936637;29;20380;-45
2022/05/29 04:54:07;;;;;;;32.88;9.57;;;;;;;7.40;95.07;101570.66;4936331;29;20036;-45
2022/05/29 04:56:33;;;;;;;33.47;10.38;;;;;;;7.44;95.60;101564.91;4935633;29;20106;-46
2022/05/29 04:58:58;;;;;;;30.10;10.27;;;;;;;7.50;96.53;101556.63;4936496;29;20032;-46
2022/05/29 05:01:23;;;;;;;38.15;10.80;;;;;;;7.54;95.78;101561.13;4936442;29;20036;-45
2022/05/29 05:03:49;;;;;;;30.40;9.82;;;;;;;7.57;96.42;101559.63;4934880;29;20035;-46
2022/05/29 05:06:14;;;;;;;31.05;10.23;;;;;;;7.60;96.32;101553.75;4936068;29;20031;-45
2022/05/29 05:08:39;;;;;;;29.75;10.38;;;;;;;7.64;95.78;101550.56;4936349;29;20019;-45
2022/05/29 05:11:06;;;;;;;31.92;10.02;;;;;;;7.64;95.84;101554.81;4935088;29;20043;-45
2022/05/29 05:13:31;;;;;;;34.95;10.43;;;;;;;7.68;96.58;101552.50;4936144;29;20464;-47
2022/05/29 05:16:01;;;;;;;31.85;10.90;;;;;;;7.71;96.38;101552.66;4936273;29;20031;-45
2022/05/29 05:18:27;;;;;;;38.67;10.93;;;;;;;7.79;97.10;101553.06;4935154;29;20035;-46
2022/05/29 05:20:52;;;;;;;31.60;10.40;;;;;;;7.81;96.28;101548.00;4936045;29;20068;-45
2022/05/29 05:23:17;;;;;;;34.90;10.50;;;;;;;7.84;95.95;101549.03;4935720;29;20793;-45
2022/05/29 05:25:42;;;;;;;38.17;10.13;;;;;;;7.94;95.75;101544.38;4935239;29;20031;-44
2022/05/29 05:28:08;;;;;;;36.30;11.10;;;;;;;7.99;96.47;101538.69;4935530;29;20043;-46
2022/05/29 05:30:33;;;;;;;33.60;10.68;;;;;;;7.99;96.69;101536.13;4936021;29;20420;-45
2022/05/29 05:32:58;;;;;;;32.60;10.82;;;;;;;8.01;96.71;101533.63;4935134;29;20055;-45
2022/05/29 05:35:23;;;;;;;21.50;10.40;;;;;;;8.06;97.30;101532.19;4935734;29;20028;-45
2022/05/29 05:37:49;;;;;;;34.05;11.38;;;;;;;8.10;97.38;101530.66;4935217;29;20028;-45
2022/05/29 05:40:15;;;;;;;39.28;11.30;;;;;;;8.11;97.56;101532.41;4935598;29;20027;-45
2022/05/29 05:42:41;;;;;;;34.83;10.35;;;;;;;8.15;97.50;101536.91;4935737;29;20067;-45
2022/05/29 05:45:09;;;;;;;28.80;11.73;;;;;;;8.17;97.50;101543.88;4935027;29;20688;-44
2022/05/29 05:47:34;;;;;;;37.88;10.40;;;;;;;8.26;97.11;101542.56;4935829;29;20383;-44
2022/05/29 05:50:00;;;;;;;23.48;10.90;;;;;;;8.35;97.73;101537.91;4935531;29;20472;-44
2022/05/29 05:52:25;;;;;;;31.80;10.38;;;;;;;8.38;97.53;101538.06;4934920;29;20428;-45
2022/05/29 05:54:50;;;;;;;25.02;10.55;;;;;;;8.41;96.91;101533.06;4935602;29;20028;-45
2022/05/29 05:57:19;;;;;;;35.03;10.73;;;;;;;8.46;97.21;101541.91;4935296;29;20044;-46
2022/05/29 05:59:45;;;;;;;27.20;10.90;;;;;;;8.53;97.01;101537.94;4935084;29;20023;-46
2022/05/29 06:02:11;;;;;;;40.25;11.23;;;;;;;8.60;96.87;101544.28;4935455;29;20464;-45
2022/05/29 06:04:38;;;;;;;26.77;10.13;;;;;;;8.59;96.28;101542.53;4935769;29;20030;-45
2022/05/29 06:07:03;;;;;;;36.97;11.10;;;;;;;8.59;96.34;101542.53;4934600;29;20555;-45
2022/05/29 06:09:29;;;;;;;26.45;9.80;;;;;;;8.69;96.38;101534.47;4935514;29;20107;-45
2022/05/29 06:11:55;;;;;;;26.35;10.07;;;;;;;8.72;96.51;101535.47;4935507;29;20384;-45
2022/05/29 06:14:21;;;;;;;36.65;10.32;;;;;;;8.88;96.39;101539.66;4934646;29;20027;-44
2022/05/29 06:16:46;;;;;;;29.55;10.07;;;;;;;8.95;94.76;101530.56;4937457;29;20028;-45
2022/05/29 06:19:12;;;;;;;23.02;9.05;;;;;;;9.07;94.54;101528.53;4939026;29;20641;-44
2022/05/29 06:21:37;;;;;;;22.48;8.73;;;;;;;9.16;94.30;101528.09;4938611;29;20032;-46
2022/05/29 06:24:02;;;;;;;22.10;8.32;;;;;;;9.34;93.68;101527.19;4938769;29;20047;-45
2022/05/29 06:26:28;;;;;;;27.33;8.63;;;;;;;9.52;93.88;101533.16;4939190;29;20349;-45
2022/05/29 06:28:53;;;;;;;23.23;8.40;;;;;;;9.66;92.04;101526.06;4938842;29;20032;-45
2022/05/29 06:31:18;;;;;;;21.83;7.57;;;;;;;9.89;92.07;101534.78;4939108;29;20414;-44
2022/05/29 06:33:44;;;;;;;26.05;8.23;;;;;;;10.01;91.37;101533.56;4939109;29;20038;-45
2022/05/29 06:36:17;;;;;;;24.95;8.73;;;;;;;10.07;90.33;101538.97;4938081;29;20024;-45
2022/05/29 06:38:45;;;;;;;24.83;8.45;;;;;;;10.26;90.57;101535.47;4938766;29;20036;-46
2022/05/29 06:41:13;;;;;;;25.13;8.30;;;;;;;10.48;90.63;101532.13;4937770;29;20479;-45
2022/05/29 06:43:38;;;;;;;;;;;;;;;10.67;89.93;101532.88;4939084;29;20070;-46
2022/05/29 06:46:06;;;;;;;19.33;7.63;;;;;;;10.84;89.35;101534.41;4938662;29;19915;-45
2022/05/29 06:48:33;;;;;;;22.00;7.80;;;;;;;10.80;86.90;101539.41;4938110;29;20039;-45
2022/05/29 06:51:06;;;;;;;29.67;7.90;;;;;;;10.90;86.47;101543.19;4938709;29;20031;-45
2022/05/29 06:53:32;;;;;;;25.25;7.47;;;;;;;10.83;86.18;101537.81;4938950;29;20043;-44
2022/05/29 06:55:57;;;;;;;18.33;7.68;;;;;;;10.82;87.38;101548.06;4938121;29;20023;-45
2022/05/29 06:58:23;;;;;;;22.52;7.60;;;;;;;11.00;86.58;101540.16;4938483;29;20071;-44
2022/05/29 07:09:01;;;;;;;23.48;6.93;;;;;;;10.89;85.11;101532.00;4938619;29;20404;-45
2022/05/29 07:11:30;;;;;;;19.45;6.88;;;;;;;10.86;85.11;101535.34;4937415;29;20444;-44
2022/05/29 07:13:57;;;;;;;20.52;7.85;;;;;;;10.91;86.09;101532.06;4938321;29;20040;-45
2022/05/29 07:16:22;;;;;;;29.65;7.72;;;;;;;10.93;85.56;101530.44;4937205;29;20034;-45
2022/05/29 07:18:50;;;;;;;25.48;7.50;;;;;;;11.17;85.46;101526.22;4938197;29;20060;-45
2022/05/29 07:21:16;;;;;;;26.77;7.55;;;;;;;11.30;83.80;101532.72;4937945;29;20452;-45
2022/05/29 07:23:42;;;;;;;24.38;6.88;;;;;;;11.34;81.93;101526.84;4937489;29;20523;-45
2022/05/29 07:26:08;;;;;;;19.95;7.75;;;;;;;11.44;83.86;101525.50;4937886;29;20468;-45
2022/05/29 07:28:33;;;;;;;25.33;7.60;;;;;;;11.56;82.75;101524.22;4937470;29;20055;-45
2022/05/29 07:30:58;;;;;;;23.65;7.90;;;;;;;11.64;82.81;101518.47;4936992;29;20063;-44
2022/05/29 07:33:25;;;;;;;19.40;7.28;;;;;;;11.64;83.62;101513.31;4938068;29;20506;-45
2022/05/29 07:35:50;;;;;;;18.50;6.60;;;;;;;11.56;82.09;101519.03;4938058;29;20039;-45
2022/05/29 07:38:16;;;;;;;23.95;6.68;;;;;;;11.59;82.56;101520.00;4937063;29;20031;-45
2022/05/29 07:40:41;;;;;;;20.42;7.57;;;;;;;11.56;82.37;101521.63;4937807;29;20036;-47
2022/05/29 07:43:26;;;;;;;28.83;7.55;;;;;;;11.49;83.38;101511.06;4937441;29;20426;-45
2022/05/29 07:45:54;;;;;;;18.90;6.45;;;;;;;11.47;81.28;101523.03;4937247;29;20032;-46
2022/05/29 07:48:23;;;;;;;23.08;6.50;;;;;;;11.46;81.89;101515.22;4937514;29;20031;-45
2022/05/29 07:50:49;;;;;;;19.85;5.80;;;;;;;11.47;82.06;101522.16;4937732;29;20038;-45
2022/05/29 07:53:14;;;;;;;24.13;5.90;;;;;;;11.44;79.63;101517.75;4936714;29;20028;-44
2022/05/29 07:55:39;;;;;;;23.73;5.88;;;;;;;11.50;80.48;101515.41;4937549;29;20048;-46
2022/05/29 07:58:06;;;;;;;25.58;6.75;;;;;;;11.73;80.80;101506.72;4937255;29;20054;-45
2022/05/29 08:00:32;;;;;;;22.27;5.78;;;;;;;12.00;80.26;101512.00;4936849;29;20054;-45
2022/05/29 08:02:57;;;;;;;18.63;6.05;;;;;;;12.28;80.06;101505.22;4937499;29;20028;-46
2022/05/29 08:05:23;;;;;;;21.08;5.65;;;;;;;12.51;78.16;101505.94;4936998;29;20031;-45
2022/05/29 08:07:49;;;;;;;24.88;5.28;;;;;;;12.72;72.57;101500.56;4936788;29;20468;-45
2022/05/29 08:10:16;;;;;;;20.25;5.40;;;;;;;13.11;73.39;101497.44;4936899;29;20383;-46
2022/05/29 08:12:42;;;;;;;16.50;5.32;;;;;;;13.14;72.26;101500.13;4936573;29;20118;-45
2022/05/29 08:15:09;;;;;;;28.33;5.80;;;;;;;13.08;74.52;101499.03;4937121;29;20147;-45
2022/05/29 08:17:35;;;;;;;19.50;5.35;;;;;;;12.90;72.54;101484.75;4937356;29;20028;-45
2022/05/29 08:20:01;;;;;;;19.98;5.40;;;;;;;12.69;73.78;101505.63;4936104;29;20047;-46
2022/05/29 08:22:26;;;;;;;20.20;5.88;;;;;;;12.58;75.95;101489.78;4936974;29;20035;-45
2022/05/29 08:30:46;;;;;;;19.40;5.50;;;;;;;12.37;74.48;101495.16;4915904;29;20040;-46
2022/05/29 08:33:15;;;;;;;24.10;5.13;;;;;;;12.21;74.33;101500.66;4915509;29;20036;-47
2022/05/29 08:35:43;;;;;;;17.05;5.90;;;;;;;12.11;77.58;101495.19;4925805;29;20098;-46
2022/05/29 08:38:10;;;;;;;19.52;5.65;;;;;;;12.25;75.66;101489.56;4936424;29;20031;-46
2022/05/29 08:40:41;;;;;;;19.25;5.13;;;;;;;12.30;72.70;101486.34;4936206;29;20486;-45
2022/05/29 08:43:11;;;;;;;27.83;6.07;;;;;;;12.43;74.22;101481.53;4936346;29;20028;-49
2022/05/29 08:45:37;;;;;;;20.15;5.28;;;;;;;12.64;74.83;101483.91;4936622;29;20055;-50
2022/05/29 08:48:03;;;;;;;23.95;5.25;;;;;;;12.81;72.02;101484.47;4935598;29;20132;-46
2022/05/29 08:50:45;;;;;;;22.38;5.57;;;;;;;12.93;72.45;101489.13;4936601;29;20135;-45
2022/05/29 08:53:29;;;;;;;19.92;4.20;;;;;;;13.10;69.01;101487.03;4936345;29;20035;-47
2022/05/29 08:56:08;;;;;;;19.20;4.88;;;;;;;13.28;68.13;101479.78;4935888;29;20034;-45
2022/05/29 08:59:05;;;;;;;13.50;4.55;;;;;;;13.54;71.15;101484.00;4936327;29;20034;-44
2022/05/29 09:01:44;;;;;;;20.30;4.90;;;;;;;13.70;68.57;101470.63;4936588;29;20031;-45
2022/05/29 09:04:17;;;;;;;19.83;4.40;;;;;;;14.02;66.60;101474.91;4936111;29;20040;-47
2022/05/29 09:06:47;;;;;;;14.70;4.30;;;;;;;14.35;64.75;101466.22;4936263;29;20036;-46
2022/05/29 09:09:21;;;;;;;18.98;5.75;;;;;;;14.57;62.98;101467.59;4935221;29;20484;-47
2022/05/29 09:11:54;;;;;;;15.40;4.50;;;;;;;14.47;64.44;101467.38;4936318;29;20139;-47
2022/05/29 09:14:47;;;;;;;17.08;4.60;;;;;;;14.20;64.25;101467.56;4936018;29;20063;-46
2022/05/29 09:17:21;;;;;;;16.45;4.13;;;;;;;13.63;64.60;101464.44;4935069;29;20535;-45
2022/05/29 09:20:11;;;;;;;18.02;4.95;;;;;;;13.32;67.80;101465.25;4935921;29;20500;-46
2022/05/29 09:22:44;;;;;;;14.88;4.50;;;;;;;12.83;69.32;101456.91;4936072;29;20031;-45
2022/05/29 09:25:22;;;;;;;15.38;4.40;;;;;;;12.49;71.00;101464.50;4934968;29;20155;-45
2022/05/29 09:27:48;;;;;;;18.67;4.72;;;;;;;12.24;71.96;101457.69;4936277;29;20028;-45
2022/05/29 09:30:14;;;;;;;21.85;4.70;;;;;;;12.15;73.15;101454.81;4935046;29;20039;-45
2022/05/29 09:32:49;;;;;;;20.38;4.63;;;;;;;12.30;74.27;101449.25;4936074;29;20028;-45
2022/05/29 09:35:33;;;;;;;18.88;5.85;;;;;;;12.66;72.56;101443.47;4935711;29;20027;-45
2022/05/29 09:38:08;;;;;;;20.95;4.70;;;;;;;13.28;71.76;101440.97;4935157;29;20027;-45
2022/05/29 09:40:41;;;;;;;18.27;4.88;;;;;;;13.75;70.70;101435.38;4936184;29;20027;-46
2022/05/29 09:43:23;;;;;;;19.00;4.68;;;;;;;14.28;69.06;101434.06;4935586;29;20492;-46
2022/05/29 09:45:49;;;;;;;20.85;5.20;;;;;;;14.80;64.99;101435.28;4935198;29;20157;-45
2022/05/29 09:51:27;;;;;;;22.17;4.05;;;;;;;15.42;62.64;101433.91;4934851;29;20127;-45
2022/05/29 09:53:57;;;;;;;16.30;4.18;;;;;;;15.46;60.18;101430.53;4935831;29;20027;-46
2022/05/29 09:56:27;;;;;;;15.60;3.72;;;;;;;15.47;60.62;101424.50;4935506;29;20035;-46
2022/05/29 09:58:57;;;;;;;18.02;3.55;;;;;;;15.62;59.15;101423.00;4935195;29;20024;-46
2022/05/29 10:01:34;;;;;;;8.23;2.03;;;;;;;16.17;56.57;101417.06;4935371;29;20484;-49
2022/05/29 10:04:02;;;;;;;9.67;2.37;;;;;;;16.47;55.25;101414.00;4935524;29;20044;-45
2022/05/29 10:06:41;;;;;;;9.98;2.50;;;;;;;16.68;53.91;101418.66;4934834;29;20680;-46
2022/05/29 10:09:22;;;;;;;13.55;2.28;;;;;;;17.27;53.79;101419.41;4935178;29;20079;-45
2022/05/29 10:11:53;;;;;;;16.45;1.92;;;;;;;17.76;49.81;101417.28;4935720;29;20024;-47
2022/05/29 10:14:18;;;;;;;2.83;1.10;;;;;;;16.94;50.15;101421.63;4934633;29;20550;-47
2022/05/29 10:16:43;;;;;;;3.60;1.10;;;;;;;15.87;52.16;101428.66;4935539;29;20034;-45
2022/05/29 10:19:11;;;;;;;4.15;1.08;;;;;;;15.04;54.96;101428.88;4934433;29;20048;-46
2022/05/29 10:21:43;;;;;;;6.32;1.33;;;;;;;14.89;55.74;101426.81;4935293;29;20071;-45
2022/05/29 10:24:31;;;;;;;7.88;1.25;;;;;;;15.58;56.01;101421.22;4935358;29;20028;-45
2022/05/29 10:27:00;;;;;;;4.40;1.02;;;;;;;15.77;53.71;101422.44;4934822;29;20024;-45
2022/05/29 10:29:29;;;;;;;5.45;1.35;;;;;;;15.62;55.17;101425.63;4935150;29;20149;-46
2022/05/29 10:31:55;;;;;;;7.10;1.10;;;;;;;15.50;55.77;101423.69;4935225;29;20066;-47
2022/05/29 10:34:32;;;;;;;7.25;1.63;;;;;;;15.30;55.94;101431.09;4934489;29;20039;-47
2022/05/29 10:36:58;;;;;;;3.17;1.00;;;;;;;15.02;56.40;101427.94;4935486;29;20054;-46
2022/05/29 10:39:28;;;;;;;5.15;1.50;;;;;;;14.81;56.04;101437.03;4935217;29;20049;-45
2022/05/29 10:41:55;;;;;;;9.35;1.52;;;;;;;14.83;57.87;101426.69;4934663;29;20024;-45
2022/05/29 10:44:57;;;;;;;7.72;1.27;;;;;;;14.93;57.89;101438.16;4934885;29;20050;-45
2022/05/29 10:47:35;;;;;;;9.05;1.73;;;;;;;14.91;56.87;101437.22;4923339;29;20043;-46
2022/05/29 10:50:13;;;;;;;8.38;2.15;;;;;;;15.37;58.25;101443.34;4934999;29;20392;-45
2022/05/29 10:52:49;;;;;;;12.10;1.85;;;;;;;15.85;56.15;101440.78;4935168;29;20090;-46
2022/05/29 10:55:39;;;;;;;9.23;2.22;;;;;;;16.28;58.33;101436.28;4934305;29;20039;-45
2022/05/29 10:58:26;;;;;;;5.90;1.65;;;;;;;16.73;56.32;101447.34;4934898;29;20032;-46
2022/05/29 11:01:02;;;;;;;6.65;1.50;;;;;;;17.48;55.12;101438.72;4935194;29;20036;-46
2022/05/29 11:03:40;;;;;;;4.10;1.35;;;;;;;17.83;51.57;101433.88;4936875;29;20038;-45
2022/05/29 11:06:37;;;;;;;6.55;1.48;;;;;;;17.40;53.83;101439.53;4938490;29;20028;-46
2022/05/29 11:09:12;;;;;;;5.97;1.50;;;;;;;16.22;55.87;101434.47;4937566;29;20042;-47
2022/05/29 11:11:59;;;;;;;8.10;2.00;;;;;;;15.38;59.75;101437.31;4938321;29;20034;-46
2022/05/29 11:14:51;;;;;;;8.52;1.98;;;;;;;14.66;63.88;101436.69;4938438;29;20039;-46
2022/05/29 11:17:35;;;;;;;9.13;2.53;;;;;;;14.14;65.66;101439.78;4937402;29;20145;-45
2022/05/29 11:20:57;;;;;;;5.55;1.30;;;;;;;13.81;64.12;101438.13;4937994;29;20063;-45
2022/05/29 11:23:38;;;;;;;10.13;2.10;;;;;;;13.24;68.59;101428.78;4916065;29;20135;-45
2022/05/29 11:26:21;;;;;;;8.73;2.17;;;;;;;13.13;67.13;101431.06;4916780;29;20035;-44
2022/05/29 11:29:04;;;;;;;7.57;2.15;;;;;;;13.10;69.97;101430.97;4934089;29;20503;-45
2022/05/29 11:31:54;;;;;;;9.05;2.30;;;;;;;13.21;69.94;101428.72;4937401;29;20035;-47
2022/05/29 11:34:25;;;;;;;8.35;1.83;;;;;;;13.45;69.95;101427.66;4937819;29;20032;-49
2022/05/29 11:37:01;;;;;;;7.85;2.03;;;;;;;13.78;69.66;101431.97;4937460;29;20072;-46
2022/05/29 11:39:49;;;;;;;9.18;3.97;;;;;;;14.13;68.53;101425.06;4937926;29;20027;-46
2022/05/29 11:42:53;;;;;;;9.85;2.40;;;;;;;14.26;66.06;101428.84;4937647;29;20035;-45
2022/05/29 11:51:41;;;;;;;6.30;1.50;;;;;;;12.37;69.37;101433.13;4936359;29;20090;-45
2022/05/29 11:54:28;;;;;;;4.78;1.40;;;;;;;12.16;72.88;101426.44;4937592;29;20031;-46
2022/05/29 11:57:02;;;;;;;5.25;1.40;;;;;;;11.96;72.48;101419.75;4937715;29;20040;-47
2022/05/29 11:59:57;;;;;;;5.43;1.60;;;;;;;11.95;73.76;101430.88;4936820;29;20106;-45
2022/05/29 12:02:26;;;;;;;7.32;1.90;;;;;;;11.99;76.42;101422.41;4937062;29;20603;-44
2022/05/29 12:05:13;;;;;;;8.60;1.58;;;;;;;12.20;75.73;101422.25;4936815;29;20110;-45
2022/05/29 12:07:46;;;;;;;6.72;1.50;;;;;;;12.49;75.52;101417.97;4937464;29;20031;-45
2022/05/29 12:10:22;;;;;;;2.95;1.10;;;;;;;12.77;75.32;101421.41;4937331;29;20035;-46
2022/05/29 12:12:57;;;;;;;4.28;1.17;;;;;;;12.81;74.20;101412.03;4936451;29;20458;-45
2022/05/29 12:15:23;;;;;;;4.38;1.08;;;;;;;12.79;72.90;101411.09;4937028;29;20038;-45
2022/05/29 12:17:53;;;;;;;4.90;1.45;;;;;;;12.59;72.12;101406.22;4937197;29;20035;-46